LCRA/AKT METAR and TAF weather

Enter ICAO airport designator
Station Type Date Time Source
LCRA METAR 2021/09/20 05:20 UTC NOAA

LCRA 200520Z 04004KT CAVOK 26/20 Q1013 NOSIG RMK BLU BLU


Station Type Date Time Source
LCRA Decoded METAR 2021/09/20 05:20 UTC NOAA

Akrotiri, Cyprus (LCRA) 34-35N 032-59E 0M
Sep 20, 2021 - 01:20 AM EDT / 2021.09.20 0520 UTC
Wind: from the NE (040 degrees) at 5 MPH (4 KT):0
Visibility: greater than 7 mile(s):0
Temperature: 78 F (26 C)
Dew Point: 68 F (20 C)
Relative Humidity: 69%
Pressure (altimeter): 29.91 in. Hg (1013 hPa)
ob: LCRA 200520Z 04004KT CAVOK 26/20 Q1013 NOSIG RMK BLU BLU
cycle: 5

Station Type Date Time Source
LCRA TAF 2021/09/20 06:06 UTC NOAA

TAF TAF LCRA 200403Z 2006/2024 07010KT 9999 FEW015
BECMG 2009/2012 21010KT

Example: see airport list